sensor_id;sensor_type;location;lat;lon;timestamp;temperature;humidity
34406;DHT22;20658;45.630;8.886;2023-02-26T00:00:12;6.50;97.40
34406;DHT22;20658;45.630;8.886;2023-02-26T00:02:46;6.40;97.00
34406;DHT22;20658;45.630;8.886;2023-02-26T00:05:15;6.40;96.50
34406;DHT22;20658;45.630;8.886;2023-02-26T00:07:49;6.40;97.20
34406;DHT22;20658;45.630;8.886;2023-02-26T00:10:22;6.40;97.30
34406;DHT22;20658;45.630;8.886;2023-02-26T00:12:57;6.40;97.60
34406;DHT22;20658;45.630;8.886;2023-02-26T00:15:31;6.30;97.70
34406;DHT22;20658;45.630;8.886;2023-02-26T00:18:07;6.30;98.00
34406;DHT22;20658;45.630;8.886;2023-02-26T00:20:44;6.20;97.70
34406;DHT22;20658;45.630;8.886;2023-02-26T00:23:18;6.20;97.30
34406;DHT22;20658;45.630;8.886;2023-02-26T00:25:52;6.10;97.30
34406;DHT22;20658;45.630;8.886;2023-02-26T00:28:27;6.10;96.80
34406;DHT22;20658;45.630;8.886;2023-02-26T00:31:01;6.10;96.30
34406;DHT22;20658;45.630;8.886;2023-02-26T00:33:36;6.00;96.10
34406;DHT22;20658;45.630;8.886;2023-02-26T00:36:20;5.90;96.30
34406;DHT22;20658;45.630;8.886;2023-02-26T00:39:01;5.90;97.20
34406;DHT22;20658;45.630;8.886;2023-02-26T00:41:40;5.90;97.00
34406;DHT22;20658;45.630;8.886;2023-02-26T00:44:15;5.80;96.50
34406;DHT22;20658;45.630;8.886;2023-02-26T00:46:50;5.70;96.60
34406;DHT22;20658;45.630;8.886;2023-02-26T00:49:30;5.70;96.70
34406;DHT22;20658;45.630;8.886;2023-02-26T00:52:22;5.70;97.00
34406;DHT22;20658;45.630;8.886;2023-02-26T00:54:58;5.60;96.90
34406;DHT22;20658;45.630;8.886;2023-02-26T00:57:27;5.60;96.90
34406;DHT22;20658;45.630;8.886;2023-02-26T01:00:02;5.50;97.00
34406;DHT22;20658;45.630;8.886;2023-02-26T01:02:39;5.50;96.80
34406;DHT22;20658;45.630;8.886;2023-02-26T01:05:14;5.50;96.40
34406;DHT22;20658;45.630;8.886;2023-02-26T01:07:55;5.40;96.40
34406;DHT22;20658;45.630;8.886;2023-02-26T01:10:32;5.40;96.10
34406;DHT22;20658;45.630;8.886;2023-02-26T01:13:02;5.30;95.20
34406;DHT22;20658;45.630;8.886;2023-02-26T01:15:38;5.30;94.60
34406;DHT22;20658;45.630;8.886;2023-02-26T01:18:19;5.30;93.10
34406;DHT22;20658;45.630;8.886;2023-02-26T01:20:55;5.30;91.20
34406;DHT22;20658;45.630;8.886;2023-02-26T01:23:31;5.40;90.70
34406;DHT22;20658;45.630;8.886;2023-02-26T01:26:12;5.30;91.30
34406;DHT22;20658;45.630;8.886;2023-02-26T01:28:43;5.20;91.80
34406;DHT22;20658;45.630;8.886;2023-02-26T01:31:30;5.20;92.30
34406;DHT22;20658;45.630;8.886;2023-02-26T01:34:13;5.20;91.60
34406;DHT22;20658;45.630;8.886;2023-02-26T01:36:53;5.20;91.90
34406;DHT22;20658;45.630;8.886;2023-02-26T01:39:35;5.10;92.10
34406;DHT22;20658;45.630;8.886;2023-02-26T01:42:15;5.10;92.30
34406;DHT22;20658;45.630;8.886;2023-02-26T01:44:57;5.10;90.00
34406;DHT22;20658;45.630;8.886;2023-02-26T01:47:39;5.20;87.70
34406;DHT22;20658;45.630;8.886;2023-02-26T01:50:20;5.20;87.60
34406;DHT22;20658;45.630;8.886;2023-02-26T01:53:15;5.30;85.60
34406;DHT22;20658;45.630;8.886;2023-02-26T01:55:55;5.30;85.20
34406;DHT22;20658;45.630;8.886;2023-02-26T01:58:32;5.20;85.80
34406;DHT22;20658;45.630;8.886;2023-02-26T02:01:07;5.30;82.40
34406;DHT22;20658;45.630;8.886;2023-02-26T02:03:42;5.30;79.70
34406;DHT22;20658;45.630;8.886;2023-02-26T02:06:20;5.30;78.60
34406;DHT22;20658;45.630;8.886;2023-02-26T02:08:55;5.30;76.70
34406;DHT22;20658;45.630;8.886;2023-02-26T02:11:28;5.40;72.60
34406;DHT22;20658;45.630;8.886;2023-02-26T02:14:09;5.50;70.20
34406;DHT22;20658;45.630;8.886;2023-02-26T02:16:49;5.50;68.70
34406;DHT22;20658;45.630;8.886;2023-02-26T02:19:37;5.60;66.50
34406;DHT22;20658;45.630;8.886;2023-02-26T02:22:33;5.70;65.40
34406;DHT22;20658;45.630;8.886;2023-02-26T02:25:26;5.80;63.00
34406;DHT22;20658;45.630;8.886;2023-02-26T02:28:19;5.90;61.60
34406;DHT22;20658;45.630;8.886;2023-02-26T02:31:06;6.10;60.60
34406;DHT22;20658;45.630;8.886;2023-02-26T02:33:46;6.10;60.60
34406;DHT22;20658;45.630;8.886;2023-02-26T02:36:28;6.10;60.10
34406;DHT22;20658;45.630;8.886;2023-02-26T02:39:09;6.20;59.60
34406;DHT22;20658;45.630;8.886;2023-02-26T02:41:48;6.20;59.70
34406;DHT22;20658;45.630;8.886;2023-02-26T02:44:25;6.20;59.20
34406;DHT22;20658;45.630;8.886;2023-02-26T02:47:03;6.10;59.30
34406;DHT22;20658;45.630;8.886;2023-02-26T02:49:37;6.10;58.50
34406;DHT22;20658;45.630;8.886;2023-02-26T02:52:18;6.50;57.80
34406;DHT22;20658;45.630;8.886;2023-02-26T02:54:58;6.20;57.90
34406;DHT22;20658;45.630;8.886;2023-02-26T02:57:38;6.20;57.30
34406;DHT22;20658;45.630;8.886;2023-02-26T03:00:16;6.20;57.20
34406;DHT22;20658;45.630;8.886;2023-02-26T03:02:58;6.20;56.70
34406;DHT22;20658;45.630;8.886;2023-02-26T03:05:34;6.20;56.40
34406;DHT22;20658;45.630;8.886;2023-02-26T03:08:10;6.10;56.90
34406;DHT22;20658;45.630;8.886;2023-02-26T03:10:45;6.10;57.10
34406;DHT22;20658;45.630;8.886;2023-02-26T03:13:21;6.00;56.60
34406;DHT22;20658;45.630;8.886;2023-02-26T03:16:09;6.00;56.60
34406;DHT22;20658;45.630;8.886;2023-02-26T03:18:59;6.00;56.40
34406;DHT22;20658;45.630;8.886;2023-02-26T03:21:46;6.00;57.10
34406;DHT22;20658;45.630;8.886;2023-02-26T03:25:05;6.00;56.00
34406;DHT22;20658;45.630;8.886;2023-02-26T03:27:46;5.90;55.70
34406;DHT22;20658;45.630;8.886;2023-02-26T03:30:21;5.90;55.60
34406;DHT22;20658;45.630;8.886;2023-02-26T03:32:57;5.90;55.00
34406;DHT22;20658;45.630;8.886;2023-02-26T03:35:34;5.90;54.70
34406;DHT22;20658;45.630;8.886;2023-02-26T03:38:11;5.90;54.60
34406;DHT22;20658;45.630;8.886;2023-02-26T03:40:51;5.90;54.00
34406;DHT22;20658;45.630;8.886;2023-02-26T03:43:30;6.30;53.80
34406;DHT22;20658;45.630;8.886;2023-02-26T03:46:12;5.90;52.90
34406;DHT22;20658;45.630;8.886;2023-02-26T03:48:48;6.00;52.10
34406;DHT22;20658;45.630;8.886;2023-02-26T03:51:26;6.00;51.20
34406;DHT22;20658;45.630;8.886;2023-02-26T03:54:21;6.10;51.10
34406;DHT22;20658;45.630;8.886;2023-02-26T03:57:19;6.20;50.00
34406;DHT22;20658;45.630;8.886;2023-02-26T04:00:12;6.20;50.70
34406;DHT22;20658;45.630;8.886;2023-02-26T04:02:53;6.20;50.00
34406;DHT22;20658;45.630;8.886;2023-02-26T04:05:32;6.20;49.90
34406;DHT22;20658;45.630;8.886;2023-02-26T04:08:09;6.20;49.90
34406;DHT22;20658;45.630;8.886;2023-02-26T04:10:40;6.10;50.30
34406;DHT22;20658;45.630;8.886;2023-02-26T04:13:11;6.10;50.20
34406;DHT22;20658;45.630;8.886;2023-02-26T04:15:39;6.20;49.40
34406;DHT22;20658;45.630;8.886;2023-02-26T04:18:08;6.10;50.20
34406;DHT22;20658;45.630;8.886;2023-02-26T04:20:41;5.90;51.50
34406;DHT22;20658;45.630;8.886;2023-02-26T04:23:11;5.70;51.50
34406;DHT22;20658;45.630;8.886;2023-02-26T04:25:45;5.70;51.90
34406;DHT22;20658;45.630;8.886;2023-02-26T04:28:18;5.70;51.10
34406;DHT22;20658;45.630;8.886;2023-02-26T04:30:47;5.80;50.60
34406;DHT22;20658;45.630;8.886;2023-02-26T04:33:21;5.70;49.90
34406;DHT22;20658;45.630;8.886;2023-02-26T04:35:55;5.80;50.40
34406;DHT22;20658;45.630;8.886;2023-02-26T04:38:29;5.90;48.40
34406;DHT22;20658;45.630;8.886;2023-02-26T04:41:04;5.90;48.50
34406;DHT22;20658;45.630;8.886;2023-02-26T04:43:38;5.80;49.70
34406;DHT22;20658;45.630;8.886;2023-02-26T04:46:31;5.70;49.80
34406;DHT22;20658;45.630;8.886;2023-02-26T04:49:04;5.50;50.50
34406;DHT22;20658;45.630;8.886;2023-02-26T04:51:42;5.50;50.60
34406;DHT22;20658;45.630;8.886;2023-02-26T04:54:17;5.50;50.40
34406;DHT22;20658;45.630;8.886;2023-02-26T04:56:52;5.50;50.00
34406;DHT22;20658;45.630;8.886;2023-02-26T04:59:25;5.50;48.90
34406;DHT22;20658;45.630;8.886;2023-02-26T05:01:59;5.50;49.10
34406;DHT22;20658;45.630;8.886;2023-02-26T05:04:37;5.60;47.80
34406;DHT22;20658;45.630;8.886;2023-02-26T05:07:10;5.70;46.20
34406;DHT22;20658;45.630;8.886;2023-02-26T05:09:45;5.80;46.20
34406;DHT22;20658;45.630;8.886;2023-02-26T05:12:19;5.70;46.20
34406;DHT22;20658;45.630;8.886;2023-02-26T05:14:52;5.80;46.00
34406;DHT22;20658;45.630;8.886;2023-02-26T05:17:26;5.70;46.90
34406;DHT22;20658;45.630;8.886;2023-02-26T05:19:59;5.70;46.30
34406;DHT22;20658;45.630;8.886;2023-02-26T05:22:32;5.70;45.30
34406;DHT22;20658;45.630;8.886;2023-02-26T05:25:08;5.80;44.60
34406;DHT22;20658;45.630;8.886;2023-02-26T05:27:44;5.90;45.20
34406;DHT22;20658;45.630;8.886;2023-02-26T05:30:18;5.90;46.80
34406;DHT22;20658;45.630;8.886;2023-02-26T05:32:51;6.00;49.50
34406;DHT22;20658;45.630;8.886;2023-02-26T05:35:25;6.10;50.50
34406;DHT22;20658;45.630;8.886;2023-02-26T05:37:59;6.10;52.50
34406;DHT22;20658;45.630;8.886;2023-02-26T05:40:28;6.20;51.80
34406;DHT22;20658;45.630;8.886;2023-02-26T05:43:02;6.30;51.00
34406;DHT22;20658;45.630;8.886;2023-02-26T05:45:31;6.30;52.00
34406;DHT22;20658;45.630;8.886;2023-02-26T05:48:04;6.30;53.90
34406;DHT22;20658;45.630;8.886;2023-02-26T05:50:38;6.40;59.40
34406;DHT22;20658;45.630;8.886;2023-02-26T05:53:11;6.40;61.60
34406;DHT22;20658;45.630;8.886;2023-02-26T05:55:46;6.50;65.60
34406;DHT22;20658;45.630;8.886;2023-02-26T05:58:19;6.70;78.50
34406;DHT22;20658;45.630;8.886;2023-02-26T06:00:53;6.80;87.00
34406;DHT22;20658;45.630;8.886;2023-02-26T06:03:26;6.90;91.80
34406;DHT22;20658;45.630;8.886;2023-02-26T06:05:59;6.90;93.90
34406;DHT22;20658;45.630;8.886;2023-02-26T06:08:33;7.00;96.00
34406;DHT22;20658;45.630;8.886;2023-02-26T06:11:07;7.00;97.30
34406;DHT22;20658;45.630;8.886;2023-02-26T06:13:40;7.00;99.40
34406;DHT22;20658;45.630;8.886;2023-02-26T06:16:14;7.10;99.90
34406;DHT22;20658;45.630;8.886;2023-02-26T06:18:48;7.30;99.90
34406;DHT22;20658;45.630;8.886;2023-02-26T06:21:22;7.00;99.90
34406;DHT22;20658;45.630;8.886;2023-02-26T06:23:50;6.90;99.80
34406;DHT22;20658;45.630;8.886;2023-02-26T06:26:25;6.90;99.10
34406;DHT22;20658;45.630;8.886;2023-02-26T06:28:58;6.80;98.90
34406;DHT22;20658;45.630;8.886;2023-02-26T06:31:28;6.80;98.70
34406;DHT22;20658;45.630;8.886;2023-02-26T06:34:01;6.70;98.10
34406;DHT22;20658;45.630;8.886;2023-02-26T06:36:34;6.60;96.20
34406;DHT22;20658;45.630;8.886;2023-02-26T06:39:08;6.50;93.40
34406;DHT22;20658;45.630;8.886;2023-02-26T06:41:44;6.40;91.20
34406;DHT22;20658;45.630;8.886;2023-02-26T06:44:18;6.30;90.70
34406;DHT22;20658;45.630;8.886;2023-02-26T06:46:51;6.30;91.10
34406;DHT22;20658;45.630;8.886;2023-02-26T06:49:25;6.30;91.60
34406;DHT22;20658;45.630;8.886;2023-02-26T06:51:58;6.20;92.20
34406;DHT22;20658;45.630;8.886;2023-02-26T06:54:32;6.20;92.90
34406;DHT22;20658;45.630;8.886;2023-02-26T06:57:06;6.10;93.10
34406;DHT22;20658;45.630;8.886;2023-02-26T06:59:40;6.00;93.30
34406;DHT22;20658;45.630;8.886;2023-02-26T07:02:16;5.90;92.80
34406;DHT22;20658;45.630;8.886;2023-02-26T07:04:50;5.80;93.20
34406;DHT22;20658;45.630;8.886;2023-02-26T07:07:24;5.70;93.30
34406;DHT22;20658;45.630;8.886;2023-02-26T07:09:57;5.70;93.70
34406;DHT22;20658;45.630;8.886;2023-02-26T07:12:32;5.90;94.40
34406;DHT22;20658;45.630;8.886;2023-02-26T07:15:06;5.70;94.60
34406;DHT22;20658;45.630;8.886;2023-02-26T07:17:40;5.70;95.00
34406;DHT22;20658;45.630;8.886;2023-02-26T07:20:13;5.70;95.40
34406;DHT22;20658;45.630;8.886;2023-02-26T07:22:48;5.60;96.10
34406;DHT22;20658;45.630;8.886;2023-02-26T07:25:28;5.60;96.80
34406;DHT22;20658;45.630;8.886;2023-02-26T07:28:15;5.60;96.60
34406;DHT22;20658;45.630;8.886;2023-02-26T07:30:48;5.50;96.50
34406;DHT22;20658;45.630;8.886;2023-02-26T07:33:21;5.40;96.30
34406;DHT22;20658;45.630;8.886;2023-02-26T07:35:56;5.40;96.90
34406;DHT22;20658;45.630;8.886;2023-02-26T07:38:29;5.40;97.30
34406;DHT22;20658;45.630;8.886;2023-02-26T07:41:03;5.40;97.30
34406;DHT22;20658;45.630;8.886;2023-02-26T07:43:37;5.40;97.70
34406;DHT22;20658;45.630;8.886;2023-02-26T07:46:11;5.30;97.50
34406;DHT22;20658;45.630;8.886;2023-02-26T07:48:44;5.30;97.90
34406;DHT22;20658;45.630;8.886;2023-02-26T07:51:18;5.40;97.80
34406;DHT22;20658;45.630;8.886;2023-02-26T07:53:51;5.40;97.80
34406;DHT22;20658;45.630;8.886;2023-02-26T07:56:25;5.40;97.90
34406;DHT22;20658;45.630;8.886;2023-02-26T07:58:59;5.40;98.00
34406;DHT22;20658;45.630;8.886;2023-02-26T08:01:33;5.40;98.10
34406;DHT22;20658;45.630;8.886;2023-02-26T08:04:06;5.50;98.80
34406;DHT22;20658;45.630;8.886;2023-02-26T08:06:40;5.40;98.70
34406;DHT22;20658;45.630;8.886;2023-02-26T08:09:13;5.30;99.00
34406;DHT22;20658;45.630;8.886;2023-02-26T08:11:47;5.30;99.70
34406;DHT22;20658;45.630;8.886;2023-02-26T08:14:22;5.30;99.50
34406;DHT22;20658;45.630;8.886;2023-02-26T08:16:55;5.30;99.70
34406;DHT22;20658;45.630;8.886;2023-02-26T08:19:28;5.30;99.80
34406;DHT22;20658;45.630;8.886;2023-02-26T08:22:02;5.30;99.40
34406;DHT22;20658;45.630;8.886;2023-02-26T08:24:35;5.40;99.40
34406;DHT22;20658;45.630;8.886;2023-02-26T08:27:10;5.30;99.50
34406;DHT22;20658;45.630;8.886;2023-02-26T08:29:44;5.30;99.50
34406;DHT22;20658;45.630;8.886;2023-02-26T08:32:21;5.30;99.90
34406;DHT22;20658;45.630;8.886;2023-02-26T08:34:54;5.30;99.90
34406;DHT22;20658;45.630;8.886;2023-02-26T08:37:28;5.30;99.40
34406;DHT22;20658;45.630;8.886;2023-02-26T08:40:01;5.30;99.90
34406;DHT22;20658;45.630;8.886;2023-02-26T08:42:35;5.30;99.20
34406;DHT22;20658;45.630;8.886;2023-02-26T08:45:10;5.10;97.60
34406;DHT22;20658;45.630;8.886;2023-02-26T08:47:44;5.10;97.50
34406;DHT22;20658;45.630;8.886;2023-02-26T08:50:17;5.10;97.00
34406;DHT22;20658;45.630;8.886;2023-02-26T08:52:51;5.10;97.00
34406;DHT22;20658;45.630;8.886;2023-02-26T08:55:24;5.20;97.00
34406;DHT22;20658;45.630;8.886;2023-02-26T08:57:58;5.30;96.80
34406;DHT22;20658;45.630;8.886;2023-02-26T09:00:33;5.20;96.90
34406;DHT22;20658;45.630;8.886;2023-02-26T09:03:06;5.30;97.10
34406;DHT22;20658;45.630;8.886;2023-02-26T09:05:40;5.30;97.70
34406;DHT22;20658;45.630;8.886;2023-02-26T09:08:14;5.20;97.70
34406;DHT22;20658;45.630;8.886;2023-02-26T09:10:47;5.20;98.10
34406;DHT22;20658;45.630;8.886;2023-02-26T09:13:21;5.20;98.70
34406;DHT22;20658;45.630;8.886;2023-02-26T09:15:55;5.10;98.90
34406;DHT22;20658;45.630;8.886;2023-02-26T09:18:24;5.20;99.00
34406;DHT22;20658;45.630;8.886;2023-02-26T09:20:57;5.20;98.70
34406;DHT22;20658;45.630;8.886;2023-02-26T09:23:30;5.10;98.90
34406;DHT22;20658;45.630;8.886;2023-02-26T09:26:04;5.00;97.80
34406;DHT22;20658;45.630;8.886;2023-02-26T09:28:39;4.90;98.10
34406;DHT22;20658;45.630;8.886;2023-02-26T09:31:14;5.00;98.30
34406;DHT22;20658;45.630;8.886;2023-02-26T09:33:47;5.00;98.20
34406;DHT22;20658;45.630;8.886;2023-02-26T09:36:21;5.00;97.90
34406;DHT22;20658;45.630;8.886;2023-02-26T09:38:54;5.00;97.70
34406;DHT22;20658;45.630;8.886;2023-02-26T09:41:30;5.00;97.30
34406;DHT22;20658;45.630;8.886;2023-02-26T09:44:16;5.10;98.00
34406;DHT22;20658;45.630;8.886;2023-02-26T09:46:58;5.10;97.60
34406;DHT22;20658;45.630;8.886;2023-02-26T09:49:45;5.10;97.50
34406;DHT22;20658;45.630;8.886;2023-02-26T09:52:24;5.20;98.00
34406;DHT22;20658;45.630;8.886;2023-02-26T09:55:04;5.40;98.50
34406;DHT22;20658;45.630;8.886;2023-02-26T09:57:45;5.20;97.60
34406;DHT22;20658;45.630;8.886;2023-02-26T10:00:23;5.10;97.50
34406;DHT22;20658;45.630;8.886;2023-02-26T10:03:14;4.90;97.90
34406;DHT22;20658;45.630;8.886;2023-02-26T10:06:11;4.90;98.00
34406;DHT22;20658;45.630;8.886;2023-02-26T10:08:54;4.90;98.30
34406;DHT22;20658;45.630;8.886;2023-02-26T10:11:45;4.90;98.80
34406;DHT22;20658;45.630;8.886;2023-02-26T10:14:25;4.90;99.10
34406;DHT22;20658;45.630;8.886;2023-02-26T10:17:05;4.80;98.70
34406;DHT22;20658;45.630;8.886;2023-02-26T10:19:44;4.70;99.90
34406;DHT22;20658;45.630;8.886;2023-02-26T10:22:31;4.50;99.80
34406;DHT22;20658;45.630;8.886;2023-02-26T10:25:11;4.60;99.90
34406;DHT22;20658;45.630;8.886;2023-02-26T10:27:54;4.60;99.90
34406;DHT22;20658;45.630;8.886;2023-02-26T10:30:35;4.50;99.90
34406;DHT22;20658;45.630;8.886;2023-02-26T10:33:18;4.50;99.90
34406;DHT22;20658;45.630;8.886;2023-02-26T10:36:03;4.40;99.90
34406;DHT22;20658;45.630;8.886;2023-02-26T10:38:48;4.50;99.90
34406;DHT22;20658;45.630;8.886;2023-02-26T10:41:24;4.50;99.90
34406;DHT22;20658;45.630;8.886;2023-02-26T10:44:04;4.50;99.90
34406;DHT22;20658;45.630;8.886;2023-02-26T10:46:44;5.10;99.90
34406;DHT22;20658;45.630;8.886;2023-02-26T10:49:25;4.50;99.90
34406;DHT22;20658;45.630;8.886;2023-02-26T10:52:18;4.60;99.90
34406;DHT22;20658;45.630;8.886;2023-02-26T10:55:05;4.60;99.90
34406;DHT22;20658;45.630;8.886;2023-02-26T10:57:51;4.80;99.90
34406;DHT22;20658;45.630;8.886;2023-02-26T11:00:28;4.90;99.90
34406;DHT22;20658;45.630;8.886;2023-02-26T11:03:03;5.00;99.90
34406;DHT22;20658;45.630;8.886;2023-02-26T11:05:38;4.90;99.90
34406;DHT22;20658;45.630;8.886;2023-02-26T11:08:17;4.80;99.90
34406;DHT22;20658;45.630;8.886;2023-02-26T11:10:56;4.80;99.90
34406;DHT22;20658;45.630;8.886;2023-02-26T11:13:32;4.90;99.90
34406;DHT22;20658;45.630;8.886;2023-02-26T11:16:12;4.80;99.90
34406;DHT22;20658;45.630;8.886;2023-02-26T11:18:49;4.70;99.90
34406;DHT22;20658;45.630;8.886;2023-02-26T11:21:27;4.60;99.90
34406;DHT22;20658;45.630;8.886;2023-02-26T11:24:06;4.30;99.90
34406;DHT22;20658;45.630;8.886;2023-02-26T11:26:45;4.10;99.90
34406;DHT22;20658;45.630;8.886;2023-02-26T11:29:21;4.00;99.90
34406;DHT22;20658;45.630;8.886;2023-02-26T11:31:58;3.90;97.80
34406;DHT22;20658;45.630;8.886;2023-02-26T11:34:33;3.70;99.90
34406;DHT22;20658;45.630;8.886;2023-02-26T11:37:07;3.70;99.90
34406;DHT22;20658;45.630;8.886;2023-02-26T11:39:42;3.70;99.90
34406;DHT22;20658;45.630;8.886;2023-02-26T11:42:15;3.80;99.90
34406;DHT22;20658;45.630;8.886;2023-02-26T11:44:50;3.90;99.90
34406;DHT22;20658;45.630;8.886;2023-02-26T11:47:27;4.00;99.90
34406;DHT22;20658;45.630;8.886;2023-02-26T11:50:04;4.00;99.90
34406;DHT22;20658;45.630;8.886;2023-02-26T11:52:47;4.00;99.60
34406;DHT22;20658;45.630;8.886;2023-02-26T11:55:33;3.90;99.70
34406;DHT22;20658;45.630;8.886;2023-02-26T11:58:17;4.00;99.90
34406;DHT22;20658;45.630;8.886;2023-02-26T12:00:52;4.10;99.90
34406;DHT22;20658;45.630;8.886;2023-02-26T12:03:27;4.20;99.00
34406;DHT22;20658;45.630;8.886;2023-02-26T12:06:03;4.20;98.80
34406;DHT22;20658;45.630;8.886;2023-02-26T12:08:37;4.30;99.10
34406;DHT22;20658;45.630;8.886;2023-02-26T12:14:43;4.30;96.00
34406;DHT22;20658;45.630;8.886;2023-02-26T12:17:41;4.20;94.60
34406;DHT22;20658;45.630;8.886;2023-02-26T12:20:26;4.30;94.50
34406;DHT22;20658;45.630;8.886;2023-02-26T12:23:21;4.40;94.40
34406;DHT22;20658;45.630;8.886;2023-02-26T12:26:22;4.50;92.50
34406;DHT22;20658;45.630;8.886;2023-02-26T12:29:05;4.40;93.40
34406;DHT22;20658;45.630;8.886;2023-02-26T12:32:01;4.50;94.00
34406;DHT22;20658;45.630;8.886;2023-02-26T12:34:59;4.50;94.80
34406;DHT22;20658;45.630;8.886;2023-02-26T12:38:01;4.50;94.80
34406;DHT22;20658;45.630;8.886;2023-02-26T12:40:52;4.50;94.70
34406;DHT22;20658;45.630;8.886;2023-02-26T12:43:42;4.40;94.70
34406;DHT22;20658;45.630;8.886;2023-02-26T12:46:29;4.40;95.00
34406;DHT22;20658;45.630;8.886;2023-02-26T12:49:42;4.30;95.90
34406;DHT22;20658;45.630;8.886;2023-02-26T12:56:09;4.40;94.70
34406;DHT22;20658;45.630;8.886;2023-02-26T12:59:16;4.40;91.60
34406;DHT22;20658;45.630;8.886;2023-02-26T13:02:33;4.60;92.40
34406;DHT22;20658;45.630;8.886;2023-02-26T13:05:25;4.70;92.40
34406;DHT22;20658;45.630;8.886;2023-02-26T13:08:14;4.80;91.80
34406;DHT22;20658;45.630;8.886;2023-02-26T13:11:05;4.80;92.60
34406;DHT22;20658;45.630;8.886;2023-02-26T13:14:00;4.90;91.30
34406;DHT22;20658;45.630;8.886;2023-02-26T13:16:48;4.90;89.60
34406;DHT22;20658;45.630;8.886;2023-02-26T13:19:34;5.00;90.00
34406;DHT22;20658;45.630;8.886;2023-02-26T13:22:18;5.00;89.40
34406;DHT22;20658;45.630;8.886;2023-02-26T13:24:53;5.00;89.80
34406;DHT22;20658;45.630;8.886;2023-02-26T13:27:31;4.90;90.00
34406;DHT22;20658;45.630;8.886;2023-02-26T13:30:18;4.90;89.70
34406;DHT22;20658;45.630;8.886;2023-02-26T13:32:56;4.80;88.60
34406;DHT22;20658;45.630;8.886;2023-02-26T13:35:32;4.80;88.80
34406;DHT22;20658;45.630;8.886;2023-02-26T13:38:15;5.10;90.40
34406;DHT22;20658;45.630;8.886;2023-02-26T13:41:02;4.80;89.60
34406;DHT22;20658;45.630;8.886;2023-02-26T13:43:53;4.70;86.10
34406;DHT22;20658;45.630;8.886;2023-02-26T13:47:01;4.50;86.00
34406;DHT22;20658;45.630;8.886;2023-02-26T13:50:03;4.60;84.90
34406;DHT22;20658;45.630;8.886;2023-02-26T13:52:55;4.70;83.00
34406;DHT22;20658;45.630;8.886;2023-02-26T13:55:37;4.80;79.50
34406;DHT22;20658;45.630;8.886;2023-02-26T13:58:28;4.70;77.20
34406;DHT22;20658;45.630;8.886;2023-02-26T14:01:09;4.70;78.10
34406;DHT22;20658;45.630;8.886;2023-02-26T14:03:50;4.80;76.10
34406;DHT22;20658;45.630;8.886;2023-02-26T14:06:43;4.80;75.30
34406;DHT22;20658;45.630;8.886;2023-02-26T14:09:44;4.80;76.30
34406;DHT22;20658;45.630;8.886;2023-02-26T14:12:34;4.80;77.60
34406;DHT22;20658;45.630;8.886;2023-02-26T14:15:27;4.90;77.70
34406;DHT22;20658;45.630;8.886;2023-02-26T14:18:30;4.90;76.90
34406;DHT22;20658;45.630;8.886;2023-02-26T14:21:37;5.00;73.50
34406;DHT22;20658;45.630;8.886;2023-02-26T14:24:16;5.10;72.90
34406;DHT22;20658;45.630;8.886;2023-02-26T14:27:23;5.30;73.10
34406;DHT22;20658;45.630;8.886;2023-02-26T14:30:15;5.50;70.90
34406;DHT22;20658;45.630;8.886;2023-02-26T14:32:54;5.50;68.60
34406;DHT22;20658;45.630;8.886;2023-02-26T14:35:42;5.50;68.10
34406;DHT22;20658;45.630;8.886;2023-02-26T14:38:23;5.50;68.20
34406;DHT22;20658;45.630;8.886;2023-02-26T14:41:05;5.50;67.30
34406;DHT22;20658;45.630;8.886;2023-02-26T14:43:43;5.50;66.10
34406;DHT22;20658;45.630;8.886;2023-02-26T14:46:23;5.40;66.60
34406;DHT22;20658;45.630;8.886;2023-02-26T14:48:57;5.40;68.10
34406;DHT22;20658;45.630;8.886;2023-02-26T14:51:38;5.40;71.00
34406;DHT22;20658;45.630;8.886;2023-02-26T14:57:27;5.40;70.50
34406;DHT22;20658;45.630;8.886;2023-02-26T15:00:19;5.40;70.10
34406;DHT22;20658;45.630;8.886;2023-02-26T15:03:18;5.50;71.10
34406;DHT22;20658;45.630;8.886;2023-02-26T15:06:10;5.60;71.50
34406;DHT22;20658;45.630;8.886;2023-02-26T15:09:02;5.60;70.50
34406;DHT22;20658;45.630;8.886;2023-02-26T15:11:58;5.70;69.90
34406;DHT22;20658;45.630;8.886;2023-02-26T15:14:54;5.80;69.50
34406;DHT22;20658;45.630;8.886;2023-02-26T15:17:52;5.80;68.60
34406;DHT22;20658;45.630;8.886;2023-02-26T15:20:39;5.80;68.20
34406;DHT22;20658;45.630;8.886;2023-02-26T15:23:26;5.80;68.50
34406;DHT22;20658;45.630;8.886;2023-02-26T15:26:17;5.70;68.40
34406;DHT22;20658;45.630;8.886;2023-02-26T15:28:48;5.70;68.60
34406;DHT22;20658;45.630;8.886;2023-02-26T15:31:29;5.70;67.40
34406;DHT22;20658;45.630;8.886;2023-02-26T15:34:05;5.60;66.80
34406;DHT22;20658;45.630;8.886;2023-02-26T15:36:41;5.50;65.00
34406;DHT22;20658;45.630;8.886;2023-02-26T15:39:18;5.50;65.90
34406;DHT22;20658;45.630;8.886;2023-02-26T15:41:53;5.40;66.60
34406;DHT22;20658;45.630;8.886;2023-02-26T15:44:31;5.40;64.80
34406;DHT22;20658;45.630;8.886;2023-02-26T15:47:05;5.30;66.40
34406;DHT22;20658;45.630;8.886;2023-02-26T15:49:42;5.30;65.80
34406;DHT22;20658;45.630;8.886;2023-02-26T15:52:19;5.30;63.80
34406;DHT22;20658;45.630;8.886;2023-02-26T15:54:57;5.20;62.40
34406;DHT22;20658;45.630;8.886;2023-02-26T15:57:32;5.20;63.90
34406;DHT22;20658;45.630;8.886;2023-02-26T16:00:14;5.20;64.60
34406;DHT22;20658;45.630;8.886;2023-02-26T16:02:51;5.20;65.10
34406;DHT22;20658;45.630;8.886;2023-02-26T16:05:24;5.10;64.10
34406;DHT22;20658;45.630;8.886;2023-02-26T16:07:53;5.10;63.80
34406;DHT22;20658;45.630;8.886;2023-02-26T16:10:31;5.10;65.10
34406;DHT22;20658;45.630;8.886;2023-02-26T16:13:13;5.10;65.60
34406;DHT22;20658;45.630;8.886;2023-02-26T16:15:45;5.00;65.30
34406;DHT22;20658;45.630;8.886;2023-02-26T16:18:22;5.30;66.10
34406;DHT22;20658;45.630;8.886;2023-02-26T16:20:59;5.00;66.90
34406;DHT22;20658;45.630;8.886;2023-02-26T16:23:42;4.90;68.60
34406;DHT22;20658;45.630;8.886;2023-02-26T16:26:30;5.10;71.10
34406;DHT22;20658;45.630;8.886;2023-02-26T16:29:09;4.60;72.10
34406;DHT22;20658;45.630;8.886;2023-02-26T16:31:50;4.50;73.10
34406;DHT22;20658;45.630;8.886;2023-02-26T16:34:35;4.50;74.30
34406;DHT22;20658;45.630;8.886;2023-02-26T16:37:22;4.40;75.20
34406;DHT22;20658;45.630;8.886;2023-02-26T16:40:07;4.30;76.50
34406;DHT22;20658;45.630;8.886;2023-02-26T16:42:53;4.30;79.70
34406;DHT22;20658;45.630;8.886;2023-02-26T16:45:47;4.20;81.40
34406;DHT22;20658;45.630;8.886;2023-02-26T16:48:24;4.10;83.40
34406;DHT22;20658;45.630;8.886;2023-02-26T16:51:01;4.10;85.20
34406;DHT22;20658;45.630;8.886;2023-02-26T16:53:41;4.10;87.20
34406;DHT22;20658;45.630;8.886;2023-02-26T16:56:22;4.00;89.50
34406;DHT22;20658;45.630;8.886;2023-02-26T16:59:04;4.00;92.00
34406;DHT22;20658;45.630;8.886;2023-02-26T17:01:43;3.80;94.30
34406;DHT22;20658;45.630;8.886;2023-02-26T17:04:26;3.80;95.80
34406;DHT22;20658;45.630;8.886;2023-02-26T17:07:01;3.80;97.40
34406;DHT22;20658;45.630;8.886;2023-02-26T17:09:39;3.70;99.00
34406;DHT22;20658;45.630;8.886;2023-02-26T17:12:16;3.60;99.90